sensor_id;sensor_type;location;lat;lon;timestamp;P1;durP1;ratioP1;P2;durP2;ratioP2
74660;SDS011;63191;39.566;2.654;2022-09-14T00:01:10;8.90;;;2.80;;
74660;SDS011;63191;39.566;2.654;2022-09-14T00:03:38;12.80;;;2.80;;
74660;SDS011;63191;39.566;2.654;2022-09-14T00:06:09;13.30;;;3.10;;
74660;SDS011;63191;39.566;2.654;2022-09-14T00:08:37;11.70;;;2.70;;
74660;SDS011;63191;39.566;2.654;2022-09-14T00:11:09;13.80;;;3.00;;
74660;SDS011;63191;39.566;2.654;2022-09-14T00:13:39;11.10;;;2.90;;
74660;SDS011;63191;39.566;2.654;2022-09-14T00:16:11;10.80;;;2.90;;
74660;SDS011;63191;39.566;2.654;2022-09-14T00:18:39;16.60;;;3.20;;
74660;SDS011;63191;39.566;2.654;2022-09-14T00:21:07;12.30;;;2.90;;
74660;SDS011;63191;39.566;2.654;2022-09-14T00:23:35;13.90;;;2.80;;
74660;SDS011;63191;39.566;2.654;2022-09-14T00:26:04;11.80;;;2.50;;
74660;SDS011;63191;39.566;2.654;2022-09-14T00:28:39;8.60;;;2.30;;
74660;SDS011;63191;39.566;2.654;2022-09-14T00:31:06;10.00;;;2.80;;
74660;SDS011;63191;39.566;2.654;2022-09-14T00:33:33;10.70;;;2.60;;
74660;SDS011;63191;39.566;2.654;2022-09-14T00:36:08;12.00;;;2.50;;
74660;SDS011;63191;39.566;2.654;2022-09-14T00:38:51;13.60;;;2.70;;
74660;SDS011;63191;39.566;2.654;2022-09-14T00:41:24;11.90;;;2.50;;
74660;SDS011;63191;39.566;2.654;2022-09-14T00:46:54;12.80;;;2.60;;
74660;SDS011;63191;39.566;2.654;2022-09-14T00:49:39;11.40;;;2.60;;
74660;SDS011;63191;39.566;2.654;2022-09-14T00:52:27;12.10;;;2.90;;
74660;SDS011;63191;39.566;2.654;2022-09-14T00:55:02;15.00;;;2.70;;
74660;SDS011;63191;39.566;2.654;2022-09-14T00:57:41;11.60;;;2.50;;
74660;SDS011;63191;39.566;2.654;2022-09-14T01:00:14;12.30;;;2.80;;
74660;SDS011;63191;39.566;2.654;2022-09-14T01:02:41;18.70;;;3.80;;
74660;SDS011;63191;39.566;2.654;2022-09-14T01:05:08;11.50;;;3.40;;
74660;SDS011;63191;39.566;2.654;2022-09-14T01:08:00;10.80;;;2.90;;
74660;SDS011;63191;39.566;2.654;2022-09-14T01:14:10;12.20;;;3.00;;
74660;SDS011;63191;39.566;2.654;2022-09-14T01:19:33;11.90;;;2.90;;
74660;SDS011;63191;39.566;2.654;2022-09-14T01:22:35;10.00;;;2.60;;
74660;SDS011;63191;39.566;2.654;2022-09-14T01:31:32;12.70;;;3.00;;
74660;SDS011;63191;39.566;2.654;2022-09-14T01:34:21;12.50;;;2.60;;
74660;SDS011;63191;39.566;2.654;2022-09-14T01:36:58;12.10;;;2.60;;
74660;SDS011;63191;39.566;2.654;2022-09-14T01:39:32;12.90;;;2.90;;
74660;SDS011;63191;39.566;2.654;2022-09-14T01:42:00;11.10;;;2.70;;
74660;SDS011;63191;39.566;2.654;2022-09-14T01:44:34;10.50;;;2.90;;
74660;SDS011;63191;39.566;2.654;2022-09-14T01:47:25;9.90;;;2.70;;
74660;SDS011;63191;39.566;2.654;2022-09-14T01:50:00;11.60;;;3.00;;
74660;SDS011;63191;39.566;2.654;2022-09-14T01:52:39;11.40;;;2.70;;
74660;SDS011;63191;39.566;2.654;2022-09-14T01:55:32;12.00;;;2.70;;
74660;SDS011;63191;39.566;2.654;2022-09-14T01:58:33;15.10;;;2.70;;
74660;SDS011;63191;39.566;2.654;2022-09-14T02:01:03;14.30;;;3.30;;
74660;SDS011;63191;39.566;2.654;2022-09-14T02:03:39;12.80;;;2.50;;
74660;SDS011;63191;39.566;2.654;2022-09-14T02:06:17;10.20;;;2.70;;
74660;SDS011;63191;39.566;2.654;2022-09-14T02:08:47;11.50;;;2.90;;
74660;SDS011;63191;39.566;2.654;2022-09-14T02:11:13;12.10;;;2.90;;
74660;SDS011;63191;39.566;2.654;2022-09-14T02:13:39;13.00;;;3.10;;
74660;SDS011;63191;39.566;2.654;2022-09-14T02:16:05;12.40;;;2.40;;
74660;SDS011;63191;39.566;2.654;2022-09-14T02:18:31;11.90;;;3.10;;
74660;SDS011;63191;39.566;2.654;2022-09-14T02:21:04;11.40;;;2.80;;
74660;SDS011;63191;39.566;2.654;2022-09-14T02:23:34;14.20;;;3.30;;
74660;SDS011;63191;39.566;2.654;2022-09-14T02:26:00;14.50;;;3.30;;
74660;SDS011;63191;39.566;2.654;2022-09-14T02:28:26;8.10;;;2.60;;
74660;SDS011;63191;39.566;2.654;2022-09-14T02:31:20;15.20;;;3.40;;
74660;SDS011;63191;39.566;2.654;2022-09-14T02:54:16;14.60;;;3.00;;
74660;SDS011;63191;39.566;2.654;2022-09-14T02:56:53;15.00;;;2.70;;
74660;SDS011;63191;39.566;2.654;2022-09-14T02:59:19;17.40;;;3.30;;
74660;SDS011;63191;39.566;2.654;2022-09-14T03:01:45;13.90;;;3.20;;
74660;SDS011;63191;39.566;2.654;2022-09-14T03:04:10;14.20;;;3.00;;
74660;SDS011;63191;39.566;2.654;2022-09-14T03:06:36;11.20;;;2.80;;
74660;SDS011;63191;39.566;2.654;2022-09-14T03:09:02;11.80;;;2.90;;
74660;SDS011;63191;39.566;2.654;2022-09-14T03:11:28;14.20;;;3.20;;
74660;SDS011;63191;39.566;2.654;2022-09-14T03:13:53;12.60;;;2.70;;
74660;SDS011;63191;39.566;2.654;2022-09-14T03:16:19;12.40;;;3.10;;
74660;SDS011;63191;39.566;2.654;2022-09-14T03:18:45;14.70;;;3.00;;
74660;SDS011;63191;39.566;2.654;2022-09-14T03:21:12;11.90;;;2.70;;
74660;SDS011;63191;39.566;2.654;2022-09-14T03:23:43;11.80;;;2.80;;
74660;SDS011;63191;39.566;2.654;2022-09-14T03:26:20;13.20;;;3.10;;
74660;SDS011;63191;39.566;2.654;2022-09-14T03:28:51;12.60;;;3.00;;
74660;SDS011;63191;39.566;2.654;2022-09-14T03:31:18;13.10;;;3.40;;
74660;SDS011;63191;39.566;2.654;2022-09-14T03:33:45;16.40;;;3.00;;
74660;SDS011;63191;39.566;2.654;2022-09-14T03:36:16;15.40;;;3.00;;
74660;SDS011;63191;39.566;2.654;2022-09-14T03:38:49;14.70;;;3.20;;
74660;SDS011;63191;39.566;2.654;2022-09-14T03:41:17;12.70;;;3.00;;
74660;SDS011;63191;39.566;2.654;2022-09-14T03:43:43;16.60;;;3.10;;
74660;SDS011;63191;39.566;2.654;2022-09-14T03:46:15;15.30;;;3.60;;
74660;SDS011;63191;39.566;2.654;2022-09-14T03:48:43;13.40;;;3.50;;
74660;SDS011;63191;39.566;2.654;2022-09-14T03:51:11;10.40;;;2.70;;
74660;SDS011;63191;39.566;2.654;2022-09-14T03:53:38;11.80;;;3.10;;
74660;SDS011;63191;39.566;2.654;2022-09-14T03:56:13;15.90;;;3.20;;
74660;SDS011;63191;39.566;2.654;2022-09-14T03:58:43;15.70;;;2.80;;
74660;SDS011;63191;39.566;2.654;2022-09-14T04:01:12;13.00;;;2.70;;
74660;SDS011;63191;39.566;2.654;2022-09-14T04:03:40;14.50;;;2.80;;
74660;SDS011;63191;39.566;2.654;2022-09-14T04:06:07;14.20;;;3.40;;
74660;SDS011;63191;39.566;2.654;2022-09-14T04:08:35;14.50;;;3.30;;
74660;SDS011;63191;39.566;2.654;2022-09-14T04:11:28;12.50;;;3.50;;
74660;SDS011;63191;39.566;2.654;2022-09-14T04:14:03;15.60;;;3.40;;
74660;SDS011;63191;39.566;2.654;2022-09-14T04:16:30;15.10;;;2.90;;
74660;SDS011;63191;39.566;2.654;2022-09-14T04:18:56;12.90;;;3.30;;
74660;SDS011;63191;39.566;2.654;2022-09-14T04:21:24;17.10;;;3.60;;
74660;SDS011;63191;39.566;2.654;2022-09-14T04:23:54;16.40;;;3.50;;
74660;SDS011;63191;39.566;2.654;2022-09-14T04:26:22;13.20;;;2.90;;
74660;SDS011;63191;39.566;2.654;2022-09-14T04:28:54;15.70;;;3.70;;
74660;SDS011;63191;39.566;2.654;2022-09-14T04:31:21;13.60;;;3.40;;
74660;SDS011;63191;39.566;2.654;2022-09-14T04:33:47;17.90;;;3.30;;
74660;SDS011;63191;39.566;2.654;2022-09-14T04:36:18;20.10;;;3.90;;
74660;SDS011;63191;39.566;2.654;2022-09-14T04:38:45;18.20;;;3.80;;
74660;SDS011;63191;39.566;2.654;2022-09-14T04:41:16;14.40;;;3.60;;
74660;SDS011;63191;39.566;2.654;2022-09-14T04:43:45;13.80;;;3.30;;
74660;SDS011;63191;39.566;2.654;2022-09-14T04:46:21;15.60;;;2.90;;
74660;SDS011;63191;39.566;2.654;2022-09-14T04:48:54;15.70;;;3.50;;
74660;SDS011;63191;39.566;2.654;2022-09-14T04:51:23;14.10;;;3.90;;
74660;SDS011;63191;39.566;2.654;2022-09-14T04:53:53;16.30;;;3.70;;
74660;SDS011;63191;39.566;2.654;2022-09-14T04:56:24;16.10;;;3.20;;
74660;SDS011;63191;39.566;2.654;2022-09-14T04:58:53;17.50;;;3.40;;
74660;SDS011;63191;39.566;2.654;2022-09-14T05:01:22;12.50;;;3.20;;
74660;SDS011;63191;39.566;2.654;2022-09-14T05:03:55;10.30;;;3.00;;
74660;SDS011;63191;39.566;2.654;2022-09-14T05:06:27;12.60;;;3.20;;
74660;SDS011;63191;39.566;2.654;2022-09-14T05:08:55;14.70;;;3.90;;
74660;SDS011;63191;39.566;2.654;2022-09-14T05:11:23;12.20;;;3.10;;
74660;SDS011;63191;39.566;2.654;2022-09-14T05:13:51;17.60;;;4.20;;
74660;SDS011;63191;39.566;2.654;2022-09-14T05:16:19;12.10;;;2.50;;
74660;SDS011;63191;39.566;2.654;2022-09-14T05:18:48;16.40;;;3.60;;
74660;SDS011;63191;39.566;2.654;2022-09-14T05:21:17;20.00;;;3.60;;
74660;SDS011;63191;39.566;2.654;2022-09-14T05:23:44;17.20;;;4.40;;
74660;SDS011;63191;39.566;2.654;2022-09-14T05:26:10;12.50;;;4.10;;
74660;SDS011;63191;39.566;2.654;2022-09-14T05:28:36;16.20;;;4.00;;
74660;SDS011;63191;39.566;2.654;2022-09-14T05:31:05;16.40;;;4.10;;
74660;SDS011;63191;39.566;2.654;2022-09-14T05:33:32;17.70;;;4.50;;
74660;SDS011;63191;39.566;2.654;2022-09-14T05:36:04;15.40;;;3.50;;
74660;SDS011;63191;39.566;2.654;2022-09-14T05:38:34;19.20;;;4.00;;
74660;SDS011;63191;39.566;2.654;2022-09-14T05:41:02;19.40;;;4.50;;
74660;SDS011;63191;39.566;2.654;2022-09-14T05:43:29;16.50;;;4.20;;
74660;SDS011;63191;39.566;2.654;2022-09-14T05:45:55;16.20;;;3.60;;
74660;SDS011;63191;39.566;2.654;2022-09-14T05:48:26;19.70;;;4.10;;
74660;SDS011;63191;39.566;2.654;2022-09-14T05:50:59;19.50;;;4.00;;
74660;SDS011;63191;39.566;2.654;2022-09-14T05:53:27;13.60;;;3.20;;
74660;SDS011;63191;39.566;2.654;2022-09-14T05:56:19;13.20;;;3.60;;
74660;SDS011;63191;39.566;2.654;2022-09-14T05:58:47;17.90;;;4.10;;
74660;SDS011;63191;39.566;2.654;2022-09-14T06:01:19;15.60;;;3.80;;
74660;SDS011;63191;39.566;2.654;2022-09-14T06:03:49;14.50;;;4.10;;
74660;SDS011;63191;39.566;2.654;2022-09-14T06:06:18;12.50;;;3.60;;
74660;SDS011;63191;39.566;2.654;2022-09-14T06:08:47;14.10;;;3.30;;
74660;SDS011;63191;39.566;2.654;2022-09-14T06:11:20;13.10;;;3.70;;
74660;SDS011;63191;39.566;2.654;2022-09-14T06:13:52;16.50;;;4.00;;
74660;SDS011;63191;39.566;2.654;2022-09-14T06:16:20;17.60;;;4.30;;
74660;SDS011;63191;39.566;2.654;2022-09-14T06:18:48;20.00;;;4.10;;
74660;SDS011;63191;39.566;2.654;2022-09-14T06:21:17;16.30;;;3.70;;
74660;SDS011;63191;39.566;2.654;2022-09-14T06:23:44;17.50;;;3.70;;
74660;SDS011;63191;39.566;2.654;2022-09-14T06:26:11;20.00;;;4.10;;
74660;SDS011;63191;39.566;2.654;2022-09-14T06:28:37;15.50;;;4.70;;
74660;SDS011;63191;39.566;2.654;2022-09-14T06:31:04;17.90;;;4.40;;
74660;SDS011;63191;39.566;2.654;2022-09-14T06:33:33;18.70;;;4.40;;
74660;SDS011;63191;39.566;2.654;2022-09-14T06:36:01;18.20;;;4.40;;
74660;SDS011;63191;39.566;2.654;2022-09-14T06:38:35;17.30;;;4.00;;
74660;SDS011;63191;39.566;2.654;2022-09-14T06:41:03;16.80;;;3.90;;
74660;SDS011;63191;39.566;2.654;2022-09-14T06:43:33;19.60;;;4.20;;
74660;SDS011;63191;39.566;2.654;2022-09-14T06:46:11;18.30;;;4.50;;
74660;SDS011;63191;39.566;2.654;2022-09-14T06:48:58;16.40;;;4.10;;
74660;SDS011;63191;39.566;2.654;2022-09-14T06:51:28;16.40;;;4.60;;
74660;SDS011;63191;39.566;2.654;2022-09-14T06:53:56;19.20;;;5.10;;
74660;SDS011;63191;39.566;2.654;2022-09-14T06:56:27;14.90;;;3.90;;
74660;SDS011;63191;39.566;2.654;2022-09-14T06:58:56;19.60;;;3.90;;
74660;SDS011;63191;39.566;2.654;2022-09-14T07:01:22;22.70;;;4.80;;
74660;SDS011;63191;39.566;2.654;2022-09-14T07:03:50;19.10;;;4.30;;
74660;SDS011;63191;39.566;2.654;2022-09-14T07:06:22;33.20;;;5.60;;
74660;SDS011;63191;39.566;2.654;2022-09-14T07:08:51;29.50;;;5.10;;
74660;SDS011;63191;39.566;2.654;2022-09-14T07:11:20;22.60;;;4.20;;
74660;SDS011;63191;39.566;2.654;2022-09-14T07:13:51;19.40;;;4.50;;
74660;SDS011;63191;39.566;2.654;2022-09-14T07:16:20;19.50;;;4.70;;
74660;SDS011;63191;39.566;2.654;2022-09-14T07:18:45;20.80;;;3.80;;
74660;SDS011;63191;39.566;2.654;2022-09-14T07:21:17;16.60;;;4.30;;
74660;SDS011;63191;39.566;2.654;2022-09-14T07:23:46;21.30;;;4.40;;
74660;SDS011;63191;39.566;2.654;2022-09-14T07:26:16;17.60;;;4.10;;
74660;SDS011;63191;39.566;2.654;2022-09-14T07:28:45;20.10;;;4.60;;
74660;SDS011;63191;39.566;2.654;2022-09-14T07:31:20;20.20;;;5.00;;
74660;SDS011;63191;39.566;2.654;2022-09-14T07:33:51;17.10;;;4.20;;
74660;SDS011;63191;39.566;2.654;2022-09-14T07:36:19;18.10;;;4.40;;
74660;SDS011;63191;39.566;2.654;2022-09-14T07:38:46;15.20;;;4.00;;
74660;SDS011;63191;39.566;2.654;2022-09-14T07:41:12;21.50;;;4.20;;
74660;SDS011;63191;39.566;2.654;2022-09-14T07:43:37;19.00;;;4.00;;
74660;SDS011;63191;39.566;2.654;2022-09-14T07:46:04;16.20;;;4.30;;
74660;SDS011;63191;39.566;2.654;2022-09-14T07:48:32;22.80;;;4.40;;
74660;SDS011;63191;39.566;2.654;2022-09-14T07:51:03;19.20;;;4.10;;
74660;SDS011;63191;39.566;2.654;2022-09-14T07:53:34;19.00;;;4.30;;
74660;SDS011;63191;39.566;2.654;2022-09-14T07:56:04;15.50;;;4.50;;
74660;SDS011;63191;39.566;2.654;2022-09-14T07:58:32;16.20;;;4.30;;
74660;SDS011;63191;39.566;2.654;2022-09-14T08:01:05;19.20;;;4.10;;
74660;SDS011;63191;39.566;2.654;2022-09-14T08:03:33;21.20;;;4.70;;
74660;SDS011;63191;39.566;2.654;2022-09-14T08:06:03;15.40;;;4.50;;
74660;SDS011;63191;39.566;2.654;2022-09-14T08:08:37;21.30;;;4.30;;
74660;SDS011;63191;39.566;2.654;2022-09-14T08:11:08;17.80;;;4.00;;
74660;SDS011;63191;39.566;2.654;2022-09-14T08:13:40;16.50;;;4.50;;
74660;SDS011;63191;39.566;2.654;2022-09-14T08:16:11;15.60;;;4.60;;
74660;SDS011;63191;39.566;2.654;2022-09-14T08:18:37;15.30;;;3.70;;
74660;SDS011;63191;39.566;2.654;2022-09-14T08:21:08;16.90;;;4.20;;
74660;SDS011;63191;39.566;2.654;2022-09-14T08:23:36;17.30;;;4.40;;
74660;SDS011;63191;39.566;2.654;2022-09-14T08:28:34;16.80;;;4.50;;
74660;SDS011;63191;39.566;2.654;2022-09-14T08:31:04;18.10;;;3.90;;
74660;SDS011;63191;39.566;2.654;2022-09-14T08:33:37;16.00;;;4.20;;
74660;SDS011;63191;39.566;2.654;2022-09-14T08:36:06;11.60;;;3.50;;
74660;SDS011;63191;39.566;2.654;2022-09-14T08:38:33;17.70;;;4.10;;
74660;SDS011;63191;39.566;2.654;2022-09-14T08:41:09;14.20;;;4.30;;
74660;SDS011;63191;39.566;2.654;2022-09-14T08:43:37;20.50;;;3.90;;
74660;SDS011;63191;39.566;2.654;2022-09-14T08:46:07;17.50;;;4.00;;
74660;SDS011;63191;39.566;2.654;2022-09-14T08:48:43;19.40;;;3.90;;
74660;SDS011;63191;39.566;2.654;2022-09-14T08:51:12;18.70;;;4.40;;
74660;SDS011;63191;39.566;2.654;2022-09-14T08:53:39;16.20;;;4.70;;
74660;SDS011;63191;39.566;2.654;2022-09-14T08:56:19;14.20;;;3.60;;
74660;SDS011;63191;39.566;2.654;2022-09-14T08:58:52;14.20;;;4.00;;
74660;SDS011;63191;39.566;2.654;2022-09-14T09:02:00;22.20;;;4.50;;
74660;SDS011;63191;39.566;2.654;2022-09-14T09:04:46;19.30;;;4.60;;
74660;SDS011;63191;39.566;2.654;2022-09-14T09:07:52;16.60;;;4.00;;
74660;SDS011;63191;39.566;2.654;2022-09-14T09:10:21;16.10;;;4.20;;
74660;SDS011;63191;39.566;2.654;2022-09-14T09:12:51;19.60;;;3.90;;
74660;SDS011;63191;39.566;2.654;2022-09-14T09:21:00;12.80;;;4.00;;
74660;SDS011;63191;39.566;2.654;2022-09-14T09:23:33;17.30;;;4.70;;
74660;SDS011;63191;39.566;2.654;2022-09-14T09:26:05;13.60;;;3.60;;
74660;SDS011;63191;39.566;2.654;2022-09-14T09:28:48;13.30;;;3.40;;
74660;SDS011;63191;39.566;2.654;2022-09-14T09:31:17;15.10;;;4.20;;
74660;SDS011;63191;39.566;2.654;2022-09-14T09:33:48;18.90;;;6.20;;
74660;SDS011;63191;39.566;2.654;2022-09-14T09:36:16;17.90;;;4.30;;
74660;SDS011;63191;39.566;2.654;2022-09-14T09:38:42;15.40;;;4.80;;
74660;SDS011;63191;39.566;2.654;2022-09-14T09:41:23;18.60;;;4.60;;
74660;SDS011;63191;39.566;2.654;2022-09-14T09:43:57;15.50;;;4.90;;
74660;SDS011;63191;39.566;2.654;2022-09-14T09:46:55;13.00;;;4.10;;
74660;SDS011;63191;39.566;2.654;2022-09-14T09:49:36;14.80;;;5.10;;
74660;SDS011;63191;39.566;2.654;2022-09-14T09:52:16;18.30;;;6.40;;
74660;SDS011;63191;39.566;2.654;2022-09-14T09:54:48;18.40;;;6.50;;
74660;SDS011;63191;39.566;2.654;2022-09-14T09:57:35;14.90;;;5.90;;
74660;SDS011;63191;39.566;2.654;2022-09-14T10:00:24;16.10;;;5.50;;
74660;SDS011;63191;39.566;2.654;2022-09-14T10:02:53;16.40;;;5.10;;
74660;SDS011;63191;39.566;2.654;2022-09-14T10:05:25;18.30;;;6.60;;
74660;SDS011;63191;39.566;2.654;2022-09-14T10:08:19;19.80;;;6.50;;
74660;SDS011;63191;39.566;2.654;2022-09-14T10:10:45;13.20;;;6.10;;
74660;SDS011;63191;39.566;2.654;2022-09-14T10:13:31;19.50;;;5.90;;
74660;SDS011;63191;39.566;2.654;2022-09-14T10:16:46;11.70;;;3.90;;
74660;SDS011;63191;39.566;2.654;2022-09-14T10:19:14;15.80;;;4.10;;
74660;SDS011;63191;39.566;2.654;2022-09-14T10:22:04;11.00;;;3.50;;
74660;SDS011;63191;39.566;2.654;2022-09-14T10:24:59;13.50;;;4.00;;
74660;SDS011;63191;39.566;2.654;2022-09-14T10:27:44;12.40;;;3.60;;
74660;SDS011;63191;39.566;2.654;2022-09-14T10:30:22;18.30;;;3.80;;
74660;SDS011;63191;39.566;2.654;2022-09-14T10:33:02;15.60;;;3.80;;
74660;SDS011;63191;39.566;2.654;2022-09-14T10:38:36;12.80;;;3.60;;
74660;SDS011;63191;39.566;2.654;2022-09-14T10:41:24;12.10;;;3.40;;
74660;SDS011;63191;39.566;2.654;2022-09-14T10:47:34;13.00;;;3.70;;
74660;SDS011;63191;39.566;2.654;2022-09-14T10:53:39;12.80;;;3.60;;
74660;SDS011;63191;39.566;2.654;2022-09-14T11:05:37;15.20;;;3.60;;
74660;SDS011;63191;39.566;2.654;2022-09-14T11:08:08;15.90;;;3.90;;
74660;SDS011;63191;39.566;2.654;2022-09-14T11:20:16;19.10;;;4.50;;
74660;SDS011;63191;39.566;2.654;2022-09-14T11:28:50;17.30;;;4.50;;
74660;SDS011;63191;39.566;2.654;2022-09-14T11:31:25;14.80;;;4.20;;
74660;SDS011;63191;39.566;2.654;2022-09-14T11:34:10;13.80;;;4.60;;
74660;SDS011;63191;39.566;2.654;2022-09-14T11:36:51;15.40;;;4.40;;
74660;SDS011;63191;39.566;2.654;2022-09-14T11:39:27;16.80;;;3.60;;
74660;SDS011;63191;39.566;2.654;2022-09-14T11:42:01;13.80;;;4.20;;
74660;SDS011;63191;39.566;2.654;2022-09-14T11:44:41;15.10;;;3.80;;
74660;SDS011;63191;39.566;2.654;2022-09-14T11:47:17;14.00;;;3.80;;
74660;SDS011;63191;39.566;2.654;2022-09-14T11:50:20;12.50;;;3.10;;
74660;SDS011;63191;39.566;2.654;2022-09-14T11:52:56;14.50;;;3.40;;
74660;SDS011;63191;39.566;2.654;2022-09-14T11:55:36;13.40;;;3.50;;
74660;SDS011;63191;39.566;2.654;2022-09-14T11:58:07;17.90;;;3.90;;
74660;SDS011;63191;39.566;2.654;2022-09-14T12:03:21;17.50;;;3.70;;
74660;SDS011;63191;39.566;2.654;2022-09-14T12:05:48;17.70;;;4.10;;
74660;SDS011;63191;39.566;2.654;2022-09-14T12:11:24;17.40;;;4.10;;
74660;SDS011;63191;39.566;2.654;2022-09-14T12:14:34;12.50;;;3.30;;
74660;SDS011;63191;39.566;2.654;2022-09-14T12:17:27;12.20;;;2.80;;
74660;SDS011;63191;39.566;2.654;2022-09-14T12:26:12;15.30;;;3.60;;
74660;SDS011;63191;39.566;2.654;2022-09-14T12:28:52;12.60;;;3.30;;
74660;SDS011;63191;39.566;2.654;2022-09-14T12:34:19;15.80;;;3.70;;
74660;SDS011;63191;39.566;2.654;2022-09-14T12:49:49;14.00;;;3.30;;
74660;SDS011;63191;39.566;2.654;2022-09-14T12:52:30;16.40;;;3.80;;
74660;SDS011;63191;39.566;2.654;2022-09-14T12:55:46;16.30;;;3.40;;
74660;SDS011;63191;39.566;2.654;2022-09-14T13:01:30;18.00;;;3.30;;
74660;SDS011;63191;39.566;2.654;2022-09-14T13:04:14;11.00;;;3.00;;
74660;SDS011;63191;39.566;2.654;2022-09-14T13:06:46;13.70;;;2.80;;
74660;SDS011;63191;39.566;2.654;2022-09-14T13:09:24;13.10;;;2.80;;
74660;SDS011;63191;39.566;2.654;2022-09-14T13:12:01;13.70;;;3.10;;
74660;SDS011;63191;39.566;2.654;2022-09-14T13:14:31;14.20;;;3.20;;
74660;SDS011;63191;39.566;2.654;2022-09-14T13:17:09;13.60;;;3.20;;
74660;SDS011;63191;39.566;2.654;2022-09-14T13:19:38;11.90;;;2.80;;
74660;SDS011;63191;39.566;2.654;2022-09-14T13:22:17;13.10;;;3.90;;
74660;SDS011;63191;39.566;2.654;2022-09-14T13:24:45;15.20;;;3.60;;
74660;SDS011;63191;39.566;2.654;2022-09-14T13:27:33;14.00;;;3.30;;
74660;SDS011;63191;39.566;2.654;2022-09-14T13:32:33;11.00;;;3.40;;
74660;SDS011;63191;39.566;2.654;2022-09-14T13:35:03;13.40;;;2.60;;
74660;SDS011;63191;39.566;2.654;2022-09-14T13:37:30;10.10;;;3.10;;
74660;SDS011;63191;39.566;2.654;2022-09-14T13:39:57;13.40;;;3.10;;
74660;SDS011;63191;39.566;2.654;2022-09-14T13:42:23;10.60;;;2.50;;
74660;SDS011;63191;39.566;2.654;2022-09-14T13:44:51;12.70;;;2.60;;
74660;SDS011;63191;39.566;2.654;2022-09-14T13:47:22;15.00;;;3.10;;
74660;SDS011;63191;39.566;2.654;2022-09-14T13:49:50;14.40;;;2.70;;
74660;SDS011;63191;39.566;2.654;2022-09-14T13:54:50;13.90;;;3.90;;
74660;SDS011;63191;39.566;2.654;2022-09-14T13:57:22;17.80;;;5.00;;
74660;SDS011;63191;39.566;2.654;2022-09-14T14:00:15;13.60;;;4.10;;
74660;SDS011;63191;39.566;2.654;2022-09-14T14:02:57;13.80;;;3.40;;
74660;SDS011;63191;39.566;2.654;2022-09-14T14:05:30;12.10;;;2.70;;
74660;SDS011;63191;39.566;2.654;2022-09-14T14:07:59;19.30;;;3.60;;
74660;SDS011;63191;39.566;2.654;2022-09-14T14:10:36;12.30;;;2.60;;
74660;SDS011;63191;39.566;2.654;2022-09-14T14:13:04;15.40;;;3.40;;
74660;SDS011;63191;39.566;2.654;2022-09-14T14:15:35;15.80;;;3.30;;
74660;SDS011;63191;39.566;2.654;2022-09-14T14:24:17;15.80;;;3.50;;
74660;SDS011;63191;39.566;2.654;2022-09-14T14:26:49;9.50;;;2.60;;
74660;SDS011;63191;39.566;2.654;2022-09-14T14:29:16;17.90;;;3.80;;
74660;SDS011;63191;39.566;2.654;2022-09-14T14:31:43;14.50;;;3.30;;
74660;SDS011;63191;39.566;2.654;2022-09-14T14:34:23;14.80;;;3.20;;
74660;SDS011;63191;39.566;2.654;2022-09-14T14:36:54;19.20;;;3.60;;
74660;SDS011;63191;39.566;2.654;2022-09-14T14:39:22;15.10;;;4.00;;
74660;SDS011;63191;39.566;2.654;2022-09-14T14:41:50;15.40;;;3.30;;
74660;SDS011;63191;39.566;2.654;2022-09-14T14:44:21;15.10;;;3.10;;
74660;SDS011;63191;39.566;2.654;2022-09-14T14:46:49;16.20;;;3.30;;
74660;SDS011;63191;39.566;2.654;2022-09-14T14:49:16;14.50;;;3.40;;
74660;SDS011;63191;39.566;2.654;2022-09-14T14:51:45;11.60;;;2.60;;
74660;SDS011;63191;39.566;2.654;2022-09-14T14:54:11;12.90;;;2.70;;
74660;SDS011;63191;39.566;2.654;2022-09-14T14:56:41;12.60;;;3.20;;
74660;SDS011;63191;39.566;2.654;2022-09-14T15:01:51;14.70;;;2.80;;
74660;SDS011;63191;39.566;2.654;2022-09-14T15:04:18;16.10;;;3.60;;
74660;SDS011;63191;39.566;2.654;2022-09-14T15:06:45;15.80;;;3.20;;
74660;SDS011;63191;39.566;2.654;2022-09-14T15:09:18;12.50;;;3.00;;
74660;SDS011;63191;39.566;2.654;2022-09-14T15:11:47;16.00;;;3.20;;
74660;SDS011;63191;39.566;2.654;2022-09-14T15:14:15;14.40;;;3.40;;
74660;SDS011;63191;39.566;2.654;2022-09-14T15:16:43;14.20;;;3.80;;
74660;SDS011;63191;39.566;2.654;2022-09-14T15:19:10;11.20;;;3.10;;
74660;SDS011;63191;39.566;2.654;2022-09-14T15:21:40;13.50;;;3.90;;
74660;SDS011;63191;39.566;2.654;2022-09-14T15:24:06;10.60;;;2.60;;
74660;SDS011;63191;39.566;2.654;2022-09-14T15:26:32;13.00;;;2.80;;
74660;SDS011;63191;39.566;2.654;2022-09-14T15:28:58;12.20;;;2.70;;
74660;SDS011;63191;39.566;2.654;2022-09-14T15:31:24;13.90;;;3.10;;
74660;SDS011;63191;39.566;2.654;2022-09-14T15:33:50;17.00;;;3.30;;
74660;SDS011;63191;39.566;2.654;2022-09-14T15:39:10;15.50;;;3.50;;
74660;SDS011;63191;39.566;2.654;2022-09-14T15:41:38;17.00;;;3.60;;
74660;SDS011;63191;39.566;2.654;2022-09-14T15:44:04;14.00;;;3.80;;
74660;SDS011;63191;39.566;2.654;2022-09-14T15:46:30;15.30;;;3.30;;
74660;SDS011;63191;39.566;2.654;2022-09-14T15:48:56;12.40;;;3.10;;
74660;SDS011;63191;39.566;2.654;2022-09-14T15:51:22;15.10;;;2.90;;
74660;SDS011;63191;39.566;2.654;2022-09-14T15:53:48;13.20;;;3.10;;
74660;SDS011;63191;39.566;2.654;2022-09-14T15:56:17;13.10;;;3.00;;
74660;SDS011;63191;39.566;2.654;2022-09-14T15:58:43;13.80;;;3.10;;
74660;SDS011;63191;39.566;2.654;2022-09-14T16:01:14;19.20;;;3.70;;
74660;SDS011;63191;39.566;2.654;2022-09-14T16:03:41;13.20;;;3.10;;
74660;SDS011;63191;39.566;2.654;2022-09-14T16:06:08;15.10;;;3.30;;
74660;SDS011;63191;39.566;2.654;2022-09-14T16:08:36;16.60;;;4.00;;
74660;SDS011;63191;39.566;2.654;2022-09-14T16:11:03;14.20;;;3.50;;
74660;SDS011;63191;39.566;2.654;2022-09-14T16:13:30;14.50;;;3.10;;
74660;SDS011;63191;39.566;2.654;2022-09-14T16:16:11;14.90;;;3.80;;
74660;SDS011;63191;39.566;2.654;2022-09-14T16:18:39;14.20;;;2.90;;
74660;SDS011;63191;39.566;2.654;2022-09-14T16:21:11;11.10;;;3.10;;
74660;SDS011;63191;39.566;2.654;2022-09-14T16:23:42;18.60;;;3.30;;
74660;SDS011;63191;39.566;2.654;2022-09-14T16:26:12;15.40;;;3.40;;
74660;SDS011;63191;39.566;2.654;2022-09-14T16:28:41;17.70;;;3.50;;
74660;SDS011;63191;39.566;2.654;2022-09-14T16:31:21;13.70;;;3.20;;
74660;SDS011;63191;39.566;2.654;2022-09-14T16:33:50;14.50;;;3.30;;
74660;SDS011;63191;39.566;2.654;2022-09-14T16:36:22;11.80;;;2.60;;
74660;SDS011;63191;39.566;2.654;2022-09-14T16:38:55;20.50;;;6.10;;
74660;SDS011;63191;39.566;2.654;2022-09-14T16:41:23;15.50;;;3.20;;
74660;SDS011;63191;39.566;2.654;2022-09-14T16:43:57;14.40;;;3.10;;
74660;SDS011;63191;39.566;2.654;2022-09-14T16:46:25;14.70;;;3.70;;
74660;SDS011;63191;39.566;2.654;2022-09-14T16:48:52;13.80;;;2.70;;
74660;SDS011;63191;39.566;2.654;2022-09-14T16:51:21;12.50;;;3.20;;
74660;SDS011;63191;39.566;2.654;2022-09-14T16:53:49;12.50;;;3.20;;
74660;SDS011;63191;39.566;2.654;2022-09-14T16:56:20;16.10;;;3.40;;
74660;SDS011;63191;39.566;2.654;2022-09-14T16:58:50;16.70;;;3.30;;
74660;SDS011;63191;39.566;2.654;2022-09-14T17:01:22;12.90;;;3.10;;
74660;SDS011;63191;39.566;2.654;2022-09-14T17:03:54;14.00;;;3.50;;
74660;SDS011;63191;39.566;2.654;2022-09-14T17:06:24;11.90;;;3.00;;
74660;SDS011;63191;39.566;2.654;2022-09-14T17:08:53;10.80;;;2.80;;
74660;SDS011;63191;39.566;2.654;2022-09-14T17:11:19;15.90;;;3.30;;
74660;SDS011;63191;39.566;2.654;2022-09-14T17:13:46;13.90;;;3.30;;